AAY35 KLAS-KEUG
Flight info
| Callsign | AAY35 |
|---|---|
| Flight time | N/A |
| Altitude | 38000 |
| Route | JOHKR5 KENNO OAL J92 LMT |
| Aircraft | A319/M-SDE3FGHIRWY/LB1 |
Departure
| Time | N/A |
|---|---|
| Airport | Harry Reid International Airport (KLAS) |
Arrival
| Time | 2026-04-23 03:09 |
|---|---|
| Airport | Eugene Airport (KEUG) |
| Time | Latitude | Longitude | Altitude | Speed | Heading |
|---|---|---|---|---|---|
| 2026-04-23 02:38 | 42.45918 | -121.97101 | 37620 ft | 432 kts | 334° |
| 2026-04-23 02:38 | 42.48691 | -121.98797 | 37352 ft | 432 kts | 335° |
| 2026-04-23 02:39 | 42.51435 | -122.00466 | 37093 ft | 432 kts | 335° |
| 2026-04-23 02:39 | 42.54162 | -122.02136 | 36833 ft | 431 kts | 335° |
| 2026-04-23 02:39 | 42.56898 | -122.03824 | 36578 ft | 431 kts | 335° |
| 2026-04-23 02:39 | 42.59623 | -122.05516 | 36327 ft | 432 kts | 335° |
| 2026-04-23 02:40 | 42.62350 | -122.07217 | 36082 ft | 431 kts | 335° |
| 2026-04-23 02:40 | 42.65080 | -122.08927 | 35840 ft | 433 kts | 335° |
| 2026-04-23 02:40 | 42.67816 | -122.10646 | 35589 ft | 434 kts | 336° |
| 2026-04-23 02:40 | 42.70567 | -122.12375 | 35343 ft | 436 kts | 336° |
| 2026-04-23 02:41 | 42.73321 | -122.14106 | 35101 ft | 437 kts | 337° |
| 2026-04-23 02:41 | 42.76079 | -122.15836 | 34860 ft | 437 kts | 336° |
| 2026-04-23 02:41 | 42.78845 | -122.17568 | 34631 ft | 438 kts | 337° |
| 2026-04-23 02:41 | 42.81624 | -122.19309 | 34393 ft | 439 kts | 337° |
| 2026-04-23 02:42 | 42.84401 | -122.21052 | 34138 ft | 440 kts | 336° |
| 2026-04-23 02:42 | 42.87177 | -122.22798 | 33869 ft | 438 kts | 336° |
| 2026-04-23 02:42 | 42.89938 | -122.24538 | 33590 ft | 436 kts | 336° |
| 2026-04-23 02:42 | 42.92679 | -122.26267 | 33321 ft | 433 kts | 336° |
| 2026-04-23 02:43 | 42.95411 | -122.27989 | 33049 ft | 431 kts | 336° |
| 2026-04-23 02:43 | 42.98122 | -122.29699 | 32780 ft | 428 kts | 336° |
| 2026-04-23 02:43 | 43.00777 | -122.31378 | 32515 ft | 423 kts | 337° |
| 2026-04-23 02:43 | 43.03432 | -122.33061 | 32166 ft | 418 kts | 336° |
| 2026-04-23 02:44 | 43.06058 | -122.34728 | 31628 ft | 414 kts | 336° |
| 2026-04-23 02:44 | 43.08653 | -122.36379 | 31120 ft | 409 kts | 336° |
| 2026-04-23 02:44 | 43.11225 | -122.38019 | 30596 ft | 406 kts | 336° |
| 2026-04-23 02:44 | 43.13769 | -122.39638 | 30051 ft | 402 kts | 336° |
| 2026-04-23 02:45 | 43.16290 | -122.41240 | 29542 ft | 397 kts | 337° |
| 2026-04-23 02:45 | 43.18778 | -122.42821 | 29048 ft | 391 kts | 336° |
| 2026-04-23 02:45 | 43.21235 | -122.44381 | 28561 ft | 387 kts | 336° |
| 2026-04-23 02:45 | 43.23669 | -122.45930 | 28093 ft | 383 kts | 336° |
| 2026-04-23 02:46 | 43.26075 | -122.47464 | 27615 ft | 380 kts | 336° |
| 2026-04-23 02:46 | 43.28457 | -122.48985 | 27162 ft | 376 kts | 336° |
| 2026-04-23 02:46 | 43.30819 | -122.50494 | 26716 ft | 373 kts | 336° |
| 2026-04-23 02:46 | 43.33163 | -122.51997 | 26282 ft | 370 kts | 336° |
| 2026-04-23 02:47 | 43.35484 | -122.53490 | 25853 ft | 367 kts | 336° |
| 2026-04-23 02:47 | 43.37787 | -122.54968 | 25432 ft | 364 kts | 336° |
| 2026-04-23 02:47 | 43.40075 | -122.56437 | 25028 ft | 361 kts | 336° |
| 2026-04-23 02:47 | 43.41579 | -122.57402 | 24757 ft | 359 kts | 336° |
| 2026-04-23 02:48 | 43.43831 | -122.58848 | 24343 ft | 356 kts | 336° |
| 2026-04-23 02:48 | 43.46071 | -122.60288 | 23924 ft | 353 kts | 336° |
| 2026-04-23 02:48 | 43.48290 | -122.61713 | 23464 ft | 350 kts | 336° |
| 2026-04-23 02:48 | 43.50482 | -122.63120 | 23047 ft | 346 kts | 337° |
| 2026-04-23 02:49 | 43.52645 | -122.64511 | 22615 ft | 341 kts | 336° |
| 2026-04-23 02:49 | 43.54778 | -122.65887 | 22206 ft | 336 kts | 336° |
| 2026-04-23 02:49 | 43.56882 | -122.67248 | 21790 ft | 332 kts | 336° |
| 2026-04-23 02:49 | 43.58964 | -122.68596 | 21386 ft | 329 kts | 336° |
| 2026-04-23 02:50 | 43.61030 | -122.69934 | 20968 ft | 326 kts | 336° |
| 2026-04-23 02:50 | 43.63078 | -122.71263 | 20562 ft | 324 kts | 336° |
| 2026-04-23 02:50 | 43.65115 | -122.72585 | 20151 ft | 323 kts | 336° |
| 2026-04-23 02:50 | 43.67145 | -122.73904 | 19747 ft | 322 kts | 336° |
| 2026-04-23 02:51 | 43.69164 | -122.75214 | 19340 ft | 320 kts | 337° |
| 2026-04-23 02:51 | 43.71177 | -122.76519 | 18935 ft | 318 kts | 336° |
| 2026-04-23 02:51 | 43.73176 | -122.77816 | 18536 ft | 317 kts | 336° |
| 2026-04-23 02:51 | 43.75169 | -122.79111 | 18105 ft | 315 kts | 336° |
| 2026-04-23 02:52 | 43.77143 | -122.80394 | 17712 ft | 312 kts | 336° |
| 2026-04-23 02:52 | 43.79102 | -122.81667 | 17301 ft | 309 kts | 336° |
| 2026-04-23 02:52 | 43.81041 | -122.82928 | 16942 ft | 307 kts | 336° |
| 2026-04-23 02:52 | 43.82967 | -122.84182 | 16562 ft | 305 kts | 336° |
| 2026-04-23 02:53 | 43.84882 | -122.85428 | 16191 ft | 303 kts | 336° |
| 2026-04-23 02:53 | 43.86782 | -122.86667 | 15825 ft | 301 kts | 336° |
| 2026-04-23 02:53 | 43.88682 | -122.87909 | 15455 ft | 300 kts | 336° |
| 2026-04-23 02:53 | 43.90567 | -122.89141 | 15083 ft | 299 kts | 336° |
| 2026-04-23 02:54 | 43.92421 | -122.90351 | 14724 ft | 298 kts | 336° |
| 2026-04-23 02:54 | 43.94313 | -122.91590 | 14353 ft | 296 kts | 336° |
| 2026-04-23 02:54 | 43.96169 | -122.92809 | 13969 ft | 295 kts | 336° |
| 2026-04-23 02:54 | 43.98016 | -122.94022 | 13574 ft | 292 kts | 336° |
| 2026-04-23 02:55 | 43.99849 | -122.95225 | 13172 ft | 290 kts | 336° |
| 2026-04-23 02:55 | 44.01667 | -122.96416 | 12620 ft | 294 kts | 336° |
| 2026-04-23 02:55 | 44.03512 | -122.97625 | 12224 ft | 292 kts | 335° |
| 2026-04-23 02:55 | 44.05338 | -122.98825 | 11849 ft | 289 kts | 335° |
| 2026-04-23 02:56 | 44.07145 | -123.00014 | 11468 ft | 285 kts | 335° |
| 2026-04-23 02:56 | 44.08928 | -123.01191 | 11100 ft | 282 kts | 335° |
| 2026-04-23 02:56 | 44.10696 | -123.02358 | 10730 ft | 280 kts | 334° |
| 2026-04-23 02:56 | 44.12449 | -123.03517 | 10361 ft | 279 kts | 334° |
| 2026-04-23 02:57 | 44.14184 | -123.04661 | 10146 ft | 271 kts | 334° |
| 2026-04-23 02:57 | 44.15899 | -123.05778 | 9708 ft | 271 kts | 334° |
| 2026-04-23 02:57 | 44.17593 | -123.06869 | 9387 ft | 267 kts | 334° |
| 2026-04-23 02:57 | 44.19274 | -123.07944 | 8988 ft | 265 kts | 334° |
| 2026-04-23 02:58 | 44.20950 | -123.09020 | 8567 ft | 265 kts | 334° |
| 2026-04-23 02:58 | 44.22622 | -123.10098 | 8147 ft | 264 kts | 334° |
| 2026-04-23 02:58 | 44.24288 | -123.11173 | 7724 ft | 264 kts | 333° |
| 2026-04-23 02:58 | 44.25976 | -123.12129 | 7503 ft | 257 kts | 340° |
| 2026-04-23 02:59 | 44.27658 | -123.12811 | 7360 ft | 246 kts | 342° |
| 2026-04-23 02:59 | 44.29281 | -123.13391 | 7245 ft | 235 kts | 343° |
| 2026-04-23 02:59 | 44.30833 | -123.13932 | 7113 ft | 225 kts | 343° |
| 2026-04-23 02:59 | 44.32323 | -123.14464 | 6838 ft | 218 kts | 341° |
| 2026-04-23 03:00 | 44.33777 | -123.15047 | 6346 ft | 217 kts | 339° |
| 2026-04-23 03:00 | 44.35183 | -123.15727 | 5847 ft | 216 kts | 335° |
| 2026-04-23 03:00 | 44.36563 | -123.16544 | 5439 ft | 215 kts | 330° |
| 2026-04-23 03:00 | 44.37877 | -123.17510 | 5158 ft | 212 kts | 325° |
| 2026-04-23 03:01 | 44.39104 | -123.18640 | 4855 ft | 210 kts | 319° |
| 2026-04-23 03:01 | 44.40200 | -123.19966 | 4533 ft | 206 kts | 310° |
| 2026-04-23 03:01 | 44.41134 | -123.21398 | 4365 ft | 193 kts | 310° |
| 2026-04-23 03:01 | 44.42028 | -123.22721 | 4166 ft | 183 kts | 303° |
| 2026-04-23 03:02 | 44.42513 | -123.24295 | 3945 ft | 175 kts | 272° |
| 2026-04-23 03:02 | 44.42216 | -123.25897 | 3665 ft | 173 kts | 233° |
| 2026-04-23 03:02 | 44.41222 | -123.26812 | 3379 ft | 177 kts | 194° |
| 2026-04-23 03:02 | 44.40013 | -123.26516 | 3105 ft | 187 kts | 152° |
| 2026-04-23 03:03 | 44.38932 | -123.25480 | 2840 ft | 188 kts | 153° |
| 2026-04-23 03:03 | 44.37814 | -123.24548 | 2612 ft | 187 kts | 154° |
| 2026-04-23 03:03 | 44.36701 | -123.23626 | 2407 ft | 185 kts | 154° |
| 2026-04-23 03:03 | 44.35577 | -123.22798 | 2166 ft | 180 kts | 165° |
| 2026-04-23 03:04 | 44.34371 | -123.22414 | 2039 ft | 177 kts | 176° |
| 2026-04-23 03:04 | 44.33153 | -123.22272 | 2016 ft | 175 kts | 181° |
| 2026-04-23 03:04 | 44.31950 | -123.22213 | 2013 ft | 175 kts | 182° |
| 2026-04-23 03:04 | 44.30726 | -123.22181 | 2015 ft | 176 kts | 183° |
| 2026-04-23 03:05 | 44.29502 | -123.22158 | 2028 ft | 176 kts | 183° |
| 2026-04-23 03:05 | 44.28281 | -123.22138 | 2031 ft | 176 kts | 183° |
| 2026-04-23 03:05 | 44.27064 | -123.22119 | 2034 ft | 175 kts | 183° |
| 2026-04-23 03:05 | 44.25853 | -123.22100 | 2027 ft | 171 kts | 184° |
| 2026-04-23 03:06 | 44.24717 | -123.22081 | 2074 ft | 157 kts | 184° |
| 2026-04-23 03:06 | 44.23627 | -123.22065 | 2038 ft | 154 kts | 184° |
| 2026-04-23 03:06 | 44.22560 | -123.22049 | 2038 ft | 153 kts | 184° |
| 2026-04-23 03:06 | 44.21495 | -123.22034 | 1944 ft | 153 kts | 184° |
| 2026-04-23 03:07 | 44.20463 | -123.22017 | 1763 ft | 142 kts | 182° |
| 2026-04-23 03:07 | 44.19531 | -123.22003 | 1582 ft | 128 kts | 182° |
| 2026-04-23 03:07 | 44.18661 | -123.21991 | 1420 ft | 123 kts | 182° |
| 2026-04-23 03:07 | 44.17808 | -123.21978 | 1256 ft | 122 kts | 181° |
| 2026-04-23 03:08 | 44.16977 | -123.21966 | 1090 ft | 120 kts | 180° |
| 2026-04-23 03:08 | 44.16148 | -123.21954 | 930 ft | 118 kts | 180° |
| 2026-04-23 03:08 | 44.15309 | -123.21950 | 729 ft | 124 kts | 180° |
| 2026-04-23 03:08 | 44.14473 | -123.21931 | 558 ft | 120 kts | 179° |
| 2026-04-23 03:09 | 44.13639 | -123.21921 | 423 ft | 119 kts | 179° |
| 2026-04-23 03:09 | 44.12826 | -123.21905 | 368 ft | 108 kts | 179° |
| 2026-04-23 03:09 | 44.12215 | -123.21897 | 359 ft | 50 kts | 179° |
| 2026-04-23 03:09 | 44.12056 | -123.21890 | 362 ft | 20 kts | 173° |
| 2026-04-23 03:10 | 44.12018 | -123.21744 | 357 ft | 15 kts | 95° |
| 2026-04-23 03:10 | 44.11965 | -123.21683 | 362 ft | 8 kts | 105° |
| 2026-04-23 03:10 | 44.11954 | -123.21625 | 359 ft | 3 kts | 101° |
| 2026-04-23 03:10 | 44.11951 | -123.21597 | 360 ft | 2 kts | 97° |
| 2026-04-23 03:11 | 44.11950 | -123.21583 | 360 ft | 0 kts | 98° |
| 2026-04-23 03:11 | 44.11950 | -123.21582 | 360 ft | 1 kts | 98° |
| 2026-04-23 03:11 | 44.11917 | -123.21563 | 361 ft | 12 kts | 155° |
| 2026-04-23 03:11 | 44.11886 | -123.21487 | 364 ft | 5 kts | 53° |
| 2026-04-23 03:12 | 44.11898 | -123.21468 | 365 ft | 3 kts | 50° |
| 2026-04-23 03:12 | 44.11923 | -123.21426 | 367 ft | 2 kts | 51° |
| 2026-04-23 03:12 | 44.11925 | -123.21424 | 366 ft | 0 kts | 51° |